sensor_id;sensor_type;location;lat;lon;timestamp;P1;durP1;ratioP1;P2;durP2;ratioP2
74543;SDS011;63016;55.030;38.710;2022-08-23T00:01:55;31.65;;;21.00;;
74543;SDS011;63016;55.030;38.710;2022-08-23T00:04:24;32.95;;;20.25;;
74543;SDS011;63016;55.030;38.710;2022-08-23T00:06:53;37.67;;;21.75;;
74543;SDS011;63016;55.030;38.710;2022-08-23T00:09:20;36.60;;;21.80;;
74543;SDS011;63016;55.030;38.710;2022-08-23T00:11:52;37.17;;;21.92;;
74543;SDS011;63016;55.030;38.710;2022-08-23T00:16:57;31.70;;;20.08;;
74543;SDS011;63016;55.030;38.710;2022-08-23T00:19:24;30.00;;;20.13;;
74543;SDS011;63016;55.030;38.710;2022-08-23T00:21:50;36.22;;;21.73;;
74543;SDS011;63016;55.030;38.710;2022-08-23T00:24:17;33.65;;;21.05;;
74543;SDS011;63016;55.030;38.710;2022-08-23T00:29:26;33.55;;;20.45;;
74543;SDS011;63016;55.030;38.710;2022-08-23T00:31:56;33.75;;;21.00;;
74543;SDS011;63016;55.030;38.710;2022-08-23T00:34:22;48.47;;;29.40;;
74543;SDS011;63016;55.030;38.710;2022-08-23T00:36:48;37.40;;;20.83;;
74543;SDS011;63016;55.030;38.710;2022-08-23T00:39:15;38.00;;;21.55;;
74543;SDS011;63016;55.030;38.710;2022-08-23T00:41:42;38.88;;;22.13;;
74543;SDS011;63016;55.030;38.710;2022-08-23T00:44:13;37.65;;;22.50;;
74543;SDS011;63016;55.030;38.710;2022-08-23T00:47:03;38.15;;;22.48;;
74543;SDS011;63016;55.030;38.710;2022-08-23T00:49:55;42.28;;;24.02;;
74543;SDS011;63016;55.030;38.710;2022-08-23T00:52:31;38.58;;;23.25;;
74543;SDS011;63016;55.030;38.710;2022-08-23T00:55:02;36.80;;;21.58;;
74543;SDS011;63016;55.030;38.710;2022-08-23T00:57:29;36.65;;;21.75;;
74543;SDS011;63016;55.030;38.710;2022-08-23T00:59:56;36.30;;;22.83;;
74543;SDS011;63016;55.030;38.710;2022-08-23T01:02:22;38.75;;;23.80;;
74543;SDS011;63016;55.030;38.710;2022-08-23T01:04:51;47.13;;;24.60;;
74543;SDS011;63016;55.030;38.710;2022-08-23T01:07:25;39.80;;;25.30;;
74543;SDS011;63016;55.030;38.710;2022-08-23T01:09:53;37.97;;;23.02;;
74543;SDS011;63016;55.030;38.710;2022-08-23T01:12:25;42.13;;;26.33;;
74543;SDS011;63016;55.030;38.710;2022-08-23T01:15:02;39.92;;;24.88;;
74543;SDS011;63016;55.030;38.710;2022-08-23T01:17:38;41.35;;;23.80;;
74543;SDS011;63016;55.030;38.710;2022-08-23T01:20:14;40.53;;;24.63;;
74543;SDS011;63016;55.030;38.710;2022-08-23T01:22:45;42.42;;;25.40;;
74543;SDS011;63016;55.030;38.710;2022-08-23T01:25:30;41.28;;;23.08;;
74543;SDS011;63016;55.030;38.710;2022-08-23T01:27:56;41.00;;;24.65;;
74543;SDS011;63016;55.030;38.710;2022-08-23T01:30:25;38.38;;;23.63;;
74543;SDS011;63016;55.030;38.710;2022-08-23T01:32:56;38.47;;;23.10;;
74543;SDS011;63016;55.030;38.710;2022-08-23T01:35:35;39.22;;;23.65;;
74543;SDS011;63016;55.030;38.710;2022-08-23T01:38:11;47.63;;;22.92;;
74543;SDS011;63016;55.030;38.710;2022-08-23T01:40:37;37.15;;;22.75;;
74543;SDS011;63016;55.030;38.710;2022-08-23T01:43:04;36.03;;;22.00;;
74543;SDS011;63016;55.030;38.710;2022-08-23T01:45:30;36.00;;;22.83;;
74543;SDS011;63016;55.030;38.710;2022-08-23T01:47:56;37.03;;;22.10;;
74543;SDS011;63016;55.030;38.710;2022-08-23T01:50:22;37.83;;;21.60;;
74543;SDS011;63016;55.030;38.710;2022-08-23T01:52:49;34.35;;;21.65;;
74543;SDS011;63016;55.030;38.710;2022-08-23T01:55:15;37.60;;;22.88;;
74543;SDS011;63016;55.030;38.710;2022-08-23T01:57:42;34.10;;;21.27;;
74543;SDS011;63016;55.030;38.710;2022-08-23T02:00:11;35.50;;;21.77;;
74543;SDS011;63016;55.030;38.710;2022-08-23T02:02:37;40.10;;;22.33;;
74543;SDS011;63016;55.030;38.710;2022-08-23T02:05:05;38.08;;;23.83;;
74543;SDS011;63016;55.030;38.710;2022-08-23T02:07:32;31.13;;;20.73;;
74543;SDS011;63016;55.030;38.710;2022-08-23T02:09:57;35.83;;;21.60;;
74543;SDS011;63016;55.030;38.710;2022-08-23T02:12:23;31.67;;;21.02;;
74543;SDS011;63016;55.030;38.710;2022-08-23T02:14:48;35.30;;;22.23;;
74543;SDS011;63016;55.030;38.710;2022-08-23T02:17:14;40.05;;;21.33;;
74543;SDS011;63016;55.030;38.710;2022-08-23T02:19:42;34.78;;;21.40;;
74543;SDS011;63016;55.030;38.710;2022-08-23T02:22:09;39.67;;;21.83;;
74543;SDS011;63016;55.030;38.710;2022-08-23T02:24:37;34.80;;;21.05;;
74543;SDS011;63016;55.030;38.710;2022-08-23T02:27:05;34.35;;;21.20;;
74543;SDS011;63016;55.030;38.710;2022-08-23T02:29:31;33.08;;;20.90;;
74543;SDS011;63016;55.030;38.710;2022-08-23T02:31:59;31.52;;;21.02;;
74543;SDS011;63016;55.030;38.710;2022-08-23T02:34:25;35.25;;;21.70;;
74543;SDS011;63016;55.030;38.710;2022-08-23T02:36:51;37.58;;;22.50;;
74543;SDS011;63016;55.030;38.710;2022-08-23T02:39:17;33.97;;;20.85;;
74543;SDS011;63016;55.030;38.710;2022-08-23T02:41:43;38.63;;;21.77;;
74543;SDS011;63016;55.030;38.710;2022-08-23T02:44:09;33.88;;;20.55;;
74543;SDS011;63016;55.030;38.710;2022-08-23T02:46:35;36.30;;;21.02;;
74543;SDS011;63016;55.030;38.710;2022-08-23T02:49:02;32.88;;;21.55;;
74543;SDS011;63016;55.030;38.710;2022-08-23T02:51:28;38.92;;;22.48;;
74543;SDS011;63016;55.030;38.710;2022-08-23T02:53:54;40.13;;;22.77;;
74543;SDS011;63016;55.030;38.710;2022-08-23T02:56:20;38.67;;;22.85;;
74543;SDS011;63016;55.030;38.710;2022-08-23T02:58:47;36.10;;;22.27;;
74543;SDS011;63016;55.030;38.710;2022-08-23T03:01:16;37.83;;;23.95;;
74543;SDS011;63016;55.030;38.710;2022-08-23T03:03:43;37.20;;;22.45;;
74543;SDS011;63016;55.030;38.710;2022-08-23T03:06:10;35.53;;;22.80;;
74543;SDS011;63016;55.030;38.710;2022-08-23T03:08:37;32.30;;;22.27;;
74543;SDS011;63016;55.030;38.710;2022-08-23T03:11:08;38.08;;;23.42;;
74543;SDS011;63016;55.030;38.710;2022-08-23T03:13:37;37.70;;;23.40;;
74543;SDS011;63016;55.030;38.710;2022-08-23T03:16:03;42.65;;;24.90;;
74543;SDS011;63016;55.030;38.710;2022-08-23T03:18:29;39.78;;;24.52;;
74543;SDS011;63016;55.030;38.710;2022-08-23T03:20:54;44.20;;;24.15;;
74543;SDS011;63016;55.030;38.710;2022-08-23T03:23:20;40.28;;;24.02;;
74543;SDS011;63016;55.030;38.710;2022-08-23T03:25:45;46.40;;;27.17;;
74543;SDS011;63016;55.030;38.710;2022-08-23T03:28:11;48.42;;;27.60;;
74543;SDS011;63016;55.030;38.710;2022-08-23T03:30:37;41.40;;;27.10;;
74543;SDS011;63016;55.030;38.710;2022-08-23T03:33:02;50.80;;;27.58;;
74543;SDS011;63016;55.030;38.710;2022-08-23T03:35:28;46.45;;;27.30;;
74543;SDS011;63016;55.030;38.710;2022-08-23T03:37:54;52.30;;;27.90;;
74543;SDS011;63016;55.030;38.710;2022-08-23T03:40:20;47.50;;;29.58;;
74543;SDS011;63016;55.030;38.710;2022-08-23T03:42:47;52.95;;;29.92;;
74543;SDS011;63016;55.030;38.710;2022-08-23T03:45:14;56.53;;;32.38;;
74543;SDS011;63016;55.030;38.710;2022-08-23T03:47:40;57.72;;;33.03;;
74543;SDS011;63016;55.030;38.710;2022-08-23T03:50:05;61.22;;;34.65;;
74543;SDS011;63016;55.030;38.710;2022-08-23T03:52:31;66.18;;;35.80;;
74543;SDS011;63016;55.030;38.710;2022-08-23T03:54:57;59.75;;;36.45;;
74543;SDS011;63016;55.030;38.710;2022-08-23T03:57:22;67.38;;;37.15;;
74543;SDS011;63016;55.030;38.710;2022-08-23T03:59:48;66.28;;;38.20;;
74543;SDS011;63016;55.030;38.710;2022-08-23T04:02:14;68.30;;;38.97;;
74543;SDS011;63016;55.030;38.710;2022-08-23T04:04:40;65.50;;;37.72;;
74543;SDS011;63016;55.030;38.710;2022-08-23T04:07:06;66.13;;;39.30;;
74543;SDS011;63016;55.030;38.710;2022-08-23T04:09:32;69.78;;;40.20;;
74543;SDS011;63016;55.030;38.710;2022-08-23T04:11:58;64.35;;;39.35;;
74543;SDS011;63016;55.030;38.710;2022-08-23T04:14:24;66.72;;;38.78;;
74543;SDS011;63016;55.030;38.710;2022-08-23T04:16:50;65.47;;;37.13;;
74543;SDS011;63016;55.030;38.710;2022-08-23T04:19:17;46.47;;;28.92;;
74543;SDS011;63016;55.030;38.710;2022-08-23T04:21:43;53.55;;;30.77;;
74543;SDS011;63016;55.030;38.710;2022-08-23T04:24:12;51.88;;;30.10;;
74543;SDS011;63016;55.030;38.710;2022-08-23T04:26:39;45.40;;;28.67;;
74543;SDS011;63016;55.030;38.710;2022-08-23T04:29:05;45.00;;;27.30;;
74543;SDS011;63016;55.030;38.710;2022-08-23T04:31:32;45.95;;;25.33;;
74543;SDS011;63016;55.030;38.710;2022-08-23T04:33:58;44.53;;;26.50;;
74543;SDS011;63016;55.030;38.710;2022-08-23T04:36:24;45.40;;;26.50;;
74543;SDS011;63016;55.030;38.710;2022-08-23T04:38:50;44.50;;;26.52;;
74543;SDS011;63016;55.030;38.710;2022-08-23T04:41:16;41.40;;;25.30;;
74543;SDS011;63016;55.030;38.710;2022-08-23T04:44:01;43.20;;;25.55;;
74543;SDS011;63016;55.030;38.710;2022-08-23T04:46:27;40.67;;;23.75;;
74543;SDS011;63016;55.030;38.710;2022-08-23T04:48:53;38.28;;;24.35;;
74543;SDS011;63016;55.030;38.710;2022-08-23T04:51:19;39.10;;;23.90;;
74543;SDS011;63016;55.030;38.710;2022-08-23T04:53:46;37.67;;;24.48;;
74543;SDS011;63016;55.030;38.710;2022-08-23T04:56:11;36.45;;;23.77;;
74543;SDS011;63016;55.030;38.710;2022-08-23T04:58:37;38.22;;;23.45;;
74543;SDS011;63016;55.030;38.710;2022-08-23T05:01:03;40.08;;;22.63;;
74543;SDS011;63016;55.030;38.710;2022-08-23T05:03:32;33.58;;;21.13;;
74543;SDS011;63016;55.030;38.710;2022-08-23T05:05:58;35.83;;;22.65;;
74543;SDS011;63016;55.030;38.710;2022-08-23T05:08:25;32.75;;;21.13;;
74543;SDS011;63016;55.030;38.710;2022-08-23T05:10:51;37.03;;;21.38;;
74543;SDS011;63016;55.030;38.710;2022-08-23T05:13:17;26.17;;;18.77;;
74543;SDS011;63016;55.030;38.710;2022-08-23T05:15:42;28.95;;;18.40;;
74543;SDS011;63016;55.030;38.710;2022-08-23T05:18:08;30.15;;;18.60;;
74543;SDS011;63016;55.030;38.710;2022-08-23T05:20:35;29.50;;;15.93;;
74543;SDS011;63016;55.030;38.710;2022-08-23T05:23:01;21.13;;;14.48;;
74543;SDS011;63016;55.030;38.710;2022-08-23T05:25:28;27.98;;;14.45;;
74543;SDS011;63016;55.030;38.710;2022-08-23T05:28:13;22.95;;;14.05;;
74543;SDS011;63016;55.030;38.710;2022-08-23T05:30:42;23.55;;;15.07;;
74543;SDS011;63016;55.030;38.710;2022-08-23T05:33:09;19.92;;;13.25;;
74543;SDS011;63016;55.030;38.710;2022-08-23T05:35:34;19.90;;;13.13;;
74543;SDS011;63016;55.030;38.710;2022-08-23T05:38:00;19.60;;;13.18;;
74543;SDS011;63016;55.030;38.710;2022-08-23T05:40:26;19.63;;;13.30;;
74543;SDS011;63016;55.030;38.710;2022-08-23T05:42:52;21.77;;;13.02;;
74543;SDS011;63016;55.030;38.710;2022-08-23T05:45:18;25.90;;;13.38;;
74543;SDS011;63016;55.030;38.710;2022-08-23T05:47:44;16.33;;;12.00;;
74543;SDS011;63016;55.030;38.710;2022-08-23T05:50:10;15.63;;;11.60;;
74543;SDS011;63016;55.030;38.710;2022-08-23T05:52:37;21.08;;;11.70;;
74543;SDS011;63016;55.030;38.710;2022-08-23T05:55:03;19.10;;;11.85;;
74543;SDS011;63016;55.030;38.710;2022-08-23T05:57:31;16.83;;;11.27;;
74543;SDS011;63016;55.030;38.710;2022-08-23T05:59:59;16.40;;;10.35;;
74543;SDS011;63016;55.030;38.710;2022-08-23T06:02:24;14.18;;;10.10;;
74543;SDS011;63016;55.030;38.710;2022-08-23T06:04:50;15.43;;;9.95;;
74543;SDS011;63016;55.030;38.710;2022-08-23T06:07:15;15.40;;;9.95;;
74543;SDS011;63016;55.030;38.710;2022-08-23T06:09:41;19.38;;;9.25;;
74543;SDS011;63016;55.030;38.710;2022-08-23T06:12:06;10.52;;;8.35;;
74543;SDS011;63016;55.030;38.710;2022-08-23T06:14:32;15.98;;;8.70;;
74543;SDS011;63016;55.030;38.710;2022-08-23T06:16:57;15.50;;;8.48;;
74543;SDS011;63016;55.030;38.710;2022-08-23T06:19:23;12.20;;;9.15;;
74543;SDS011;63016;55.030;38.710;2022-08-23T06:21:49;16.17;;;8.18;;
74543;SDS011;63016;55.030;38.710;2022-08-23T06:24:15;10.80;;;7.85;;
74543;SDS011;63016;55.030;38.710;2022-08-23T06:26:42;14.07;;;8.65;;
74543;SDS011;63016;55.030;38.710;2022-08-23T06:29:10;11.27;;;7.68;;
74543;SDS011;63016;55.030;38.710;2022-08-23T06:31:42;13.93;;;8.38;;
74543;SDS011;63016;55.030;38.710;2022-08-23T06:34:11;16.10;;;9.95;;
74543;SDS011;63016;55.030;38.710;2022-08-23T06:36:39;12.68;;;8.57;;
74543;SDS011;63016;55.030;38.710;2022-08-23T06:39:06;17.75;;;8.98;;
74543;SDS011;63016;55.030;38.710;2022-08-23T06:41:33;10.38;;;8.05;;
74543;SDS011;63016;55.030;38.710;2022-08-23T06:43:58;13.65;;;8.05;;
74543;SDS011;63016;55.030;38.710;2022-08-23T06:46:26;15.48;;;8.05;;
74543;SDS011;63016;55.030;38.710;2022-08-23T06:48:52;12.25;;;7.68;;
74543;SDS011;63016;55.030;38.710;2022-08-23T06:51:29;11.68;;;7.45;;
74543;SDS011;63016;55.030;38.710;2022-08-23T06:53:58;10.07;;;7.28;;
74543;SDS011;63016;55.030;38.710;2022-08-23T06:56:26;10.23;;;7.53;;
74543;SDS011;63016;55.030;38.710;2022-08-23T06:58:53;13.80;;;8.20;;
74543;SDS011;63016;55.030;38.710;2022-08-23T07:01:39;10.18;;;6.78;;
74543;SDS011;63016;55.030;38.710;2022-08-23T07:04:16;11.68;;;7.65;;
74543;SDS011;63016;55.030;38.710;2022-08-23T07:06:43;10.32;;;7.25;;
74543;SDS011;63016;55.030;38.710;2022-08-23T07:09:10;10.43;;;6.80;;
74543;SDS011;63016;55.030;38.710;2022-08-23T07:11:36;9.70;;;6.78;;
74543;SDS011;63016;55.030;38.710;2022-08-23T07:14:04;9.68;;;6.40;;
74543;SDS011;63016;55.030;38.710;2022-08-23T07:16:32;12.88;;;6.88;;
74543;SDS011;63016;55.030;38.710;2022-08-23T07:19:00;9.75;;;7.03;;
74543;SDS011;63016;55.030;38.710;2022-08-23T07:21:26;10.70;;;6.80;;
74543;SDS011;63016;55.030;38.710;2022-08-23T07:23:52;11.68;;;7.10;;
74543;SDS011;63016;55.030;38.710;2022-08-23T07:26:19;11.15;;;7.13;;
74543;SDS011;63016;55.030;38.710;2022-08-23T07:28:45;9.38;;;7.18;;
74543;SDS011;63016;55.030;38.710;2022-08-23T07:31:14;11.80;;;6.63;;
74543;SDS011;63016;55.030;38.710;2022-08-23T07:33:55;13.20;;;7.00;;
74543;SDS011;63016;55.030;38.710;2022-08-23T07:36:25;11.65;;;7.60;;
74543;SDS011;63016;55.030;38.710;2022-08-23T07:38:53;11.02;;;7.43;;
74543;SDS011;63016;55.030;38.710;2022-08-23T07:41:19;9.80;;;6.80;;
74543;SDS011;63016;55.030;38.710;2022-08-23T07:43:48;10.45;;;6.68;;
74543;SDS011;63016;55.030;38.710;2022-08-23T07:46:14;10.85;;;7.22;;
74543;SDS011;63016;55.030;38.710;2022-08-23T07:48:42;8.85;;;6.65;;
74543;SDS011;63016;55.030;38.710;2022-08-23T07:51:09;9.40;;;6.60;;
74543;SDS011;63016;55.030;38.710;2022-08-23T07:53:36;13.52;;;6.80;;
74543;SDS011;63016;55.030;38.710;2022-08-23T07:56:05;12.43;;;6.55;;
74543;SDS011;63016;55.030;38.710;2022-08-23T07:58:32;15.63;;;7.05;;
74543;SDS011;63016;55.030;38.710;2022-08-23T08:01:11;10.52;;;6.68;;
74543;SDS011;63016;55.030;38.710;2022-08-23T08:03:44;16.73;;;7.05;;
74543;SDS011;63016;55.030;38.710;2022-08-23T08:06:18;17.08;;;7.00;;
74543;SDS011;63016;55.030;38.710;2022-08-23T08:08:47;8.23;;;6.47;;
74543;SDS011;63016;55.030;38.710;2022-08-23T08:11:17;9.93;;;6.57;;
74543;SDS011;63016;55.030;38.710;2022-08-23T08:13:45;11.45;;;6.35;;
74543;SDS011;63016;55.030;38.710;2022-08-23T08:16:25;11.98;;;6.30;;
74543;SDS011;63016;55.030;38.710;2022-08-23T08:18:55;12.50;;;6.25;;
74543;SDS011;63016;55.030;38.710;2022-08-23T08:21:23;8.32;;;5.88;;
74543;SDS011;63016;55.030;38.710;2022-08-23T08:23:51;12.85;;;5.82;;
74543;SDS011;63016;55.030;38.710;2022-08-23T08:26:17;6.95;;;5.32;;
74543;SDS011;63016;55.030;38.710;2022-08-23T08:28:43;8.05;;;5.60;;
74543;SDS011;63016;55.030;38.710;2022-08-23T08:31:09;12.80;;;5.78;;
74543;SDS011;63016;55.030;38.710;2022-08-23T08:33:35;6.75;;;5.45;;
74543;SDS011;63016;55.030;38.710;2022-08-23T08:36:01;8.13;;;5.50;;
74543;SDS011;63016;55.030;38.710;2022-08-23T08:38:28;8.38;;;5.70;;
74543;SDS011;63016;55.030;38.710;2022-08-23T08:41:02;7.60;;;5.70;;
74543;SDS011;63016;55.030;38.710;2022-08-23T08:48:44;8.20;;;5.70;;
74543;SDS011;63016;55.030;38.710;2022-08-23T08:54:23;6.75;;;5.45;;
74543;SDS011;63016;55.030;38.710;2022-08-23T08:56:56;8.55;;;5.15;;
74543;SDS011;63016;55.030;38.710;2022-08-23T09:02:31;6.32;;;5.60;;
74543;SDS011;63016;55.030;38.710;2022-08-23T09:05:02;9.07;;;4.82;;
74543;SDS011;63016;55.030;38.710;2022-08-23T09:19:07;6.72;;;4.60;;
74543;SDS011;63016;55.030;38.710;2022-08-23T09:22:09;10.35;;;5.30;;
74543;SDS011;63016;55.030;38.710;2022-08-23T09:24:28;9.35;;;5.15;;
74543;SDS011;63016;55.030;38.710;2022-08-23T09:26:54;6.75;;;4.90;;
74543;SDS011;63016;55.030;38.710;2022-08-23T09:31:53;8.25;;;4.75;;
74543;SDS011;63016;55.030;38.710;2022-08-23T09:36:56;16.02;;;4.78;;
74543;SDS011;63016;55.030;38.710;2022-08-23T09:39:36;7.22;;;4.82;;
74543;SDS011;63016;55.030;38.710;2022-08-23T09:42:38;6.93;;;5.20;;
74543;SDS011;63016;55.030;38.710;2022-08-23T09:45:05;8.75;;;4.20;;
74543;SDS011;63016;55.030;38.710;2022-08-23T09:47:48;6.43;;;4.50;;
74543;SDS011;63016;55.030;38.710;2022-08-23T09:52:49;6.25;;;4.60;;
74543;SDS011;63016;55.030;38.710;2022-08-23T09:55:32;10.52;;;4.90;;
74543;SDS011;63016;55.030;38.710;2022-08-23T10:04:05;9.90;;;4.80;;
74543;SDS011;63016;55.030;38.710;2022-08-23T10:06:38;9.23;;;5.00;;
74543;SDS011;63016;55.030;38.710;2022-08-23T10:09:08;7.95;;;4.85;;
74543;SDS011;63016;55.030;38.710;2022-08-23T10:11:38;7.43;;;4.38;;
74543;SDS011;63016;55.030;38.710;2022-08-23T10:14:09;9.00;;;4.63;;
74543;SDS011;63016;55.030;38.710;2022-08-23T10:22:06;8.38;;;4.40;;
74543;SDS011;63016;55.030;38.710;2022-08-23T10:30:21;9.68;;;4.15;;
74543;SDS011;63016;55.030;38.710;2022-08-23T10:33:11;7.90;;;4.47;;
74543;SDS011;63016;55.030;38.710;2022-08-23T10:38:33;8.07;;;4.13;;
74543;SDS011;63016;55.030;38.710;2022-08-23T10:46:25;7.72;;;4.68;;
74543;SDS011;63016;55.030;38.710;2022-08-23T10:48:56;6.10;;;4.53;;
74543;SDS011;63016;55.030;38.710;2022-08-23T10:51:25;6.38;;;4.50;;
74543;SDS011;63016;55.030;38.710;2022-08-23T10:56:31;6.18;;;4.10;;
74543;SDS011;63016;55.030;38.710;2022-08-23T10:58:59;6.88;;;4.53;;
74543;SDS011;63016;55.030;38.710;2022-08-23T11:07:17;6.70;;;4.30;;
74543;SDS011;63016;55.030;38.710;2022-08-23T11:09:47;6.28;;;4.10;;
74543;SDS011;63016;55.030;38.710;2022-08-23T11:12:21;5.68;;;4.00;;
74543;SDS011;63016;55.030;38.710;2022-08-23T11:19:55;5.53;;;3.70;;
74543;SDS011;63016;55.030;38.710;2022-08-23T11:31:15;5.23;;;3.90;;
74543;SDS011;63016;55.030;38.710;2022-08-23T11:33:58;8.52;;;4.10;;
74543;SDS011;63016;55.030;38.710;2022-08-23T11:36:35;5.70;;;3.80;;
74543;SDS011;63016;55.030;38.710;2022-08-23T11:39:11;8.35;;;4.13;;
74543;SDS011;63016;55.030;38.710;2022-08-23T11:44:22;4.60;;;3.60;;
74543;SDS011;63016;55.030;38.710;2022-08-23T12:00:20;5.25;;;3.88;;
74543;SDS011;63016;55.030;38.710;2022-08-23T12:23:46;6.18;;;3.67;;
74543;SDS011;63016;55.030;38.710;2022-08-23T12:40:14;7.57;;;4.43;;
74543;SDS011;63016;55.030;38.710;2022-08-23T12:42:46;6.97;;;4.25;;
74543;SDS011;63016;55.030;38.710;2022-08-23T12:45:15;5.15;;;4.15;;
74543;SDS011;63016;55.030;38.710;2022-08-23T12:47:46;8.27;;;4.18;;
74543;SDS011;63016;55.030;38.710;2022-08-23T12:50:24;5.85;;;4.10;;
74543;SDS011;63016;55.030;38.710;2022-08-23T12:52:57;9.35;;;3.95;;
74543;SDS011;63016;55.030;38.710;2022-08-23T12:55:49;8.60;;;3.95;;
74543;SDS011;63016;55.030;38.710;2022-08-23T13:00:54;5.25;;;4.18;;
74543;SDS011;63016;55.030;38.710;2022-08-23T13:03:23;11.35;;;4.25;;
74543;SDS011;63016;55.030;38.710;2022-08-23T13:05:58;5.75;;;4.00;;
74543;SDS011;63016;55.030;38.710;2022-08-23T13:08:41;8.20;;;4.25;;
74543;SDS011;63016;55.030;38.710;2022-08-23T13:11:18;9.60;;;4.40;;
74543;SDS011;63016;55.030;38.710;2022-08-23T13:13:46;9.90;;;3.90;;
74543;SDS011;63016;55.030;38.710;2022-08-23T13:16:26;6.97;;;4.05;;
74543;SDS011;63016;55.030;38.710;2022-08-23T13:21:38;7.20;;;4.15;;
74543;SDS011;63016;55.030;38.710;2022-08-23T13:27:09;6.45;;;4.05;;
74543;SDS011;63016;55.030;38.710;2022-08-23T13:29:48;7.47;;;4.13;;
74543;SDS011;63016;55.030;38.710;2022-08-23T13:38:00;7.50;;;3.75;;
74543;SDS011;63016;55.030;38.710;2022-08-23T13:43:21;6.53;;;4.18;;
74543;SDS011;63016;55.030;38.710;2022-08-23T13:45:56;8.27;;;4.15;;
74543;SDS011;63016;55.030;38.710;2022-08-23T13:48:45;4.78;;;3.78;;
74543;SDS011;63016;55.030;38.710;2022-08-23T13:54:26;7.10;;;3.97;;
74543;SDS011;63016;55.030;38.710;2022-08-23T13:56:54;10.40;;;4.30;;
74543;SDS011;63016;55.030;38.710;2022-08-23T13:59:27;9.45;;;4.03;;
74543;SDS011;63016;55.030;38.710;2022-08-23T14:01:54;10.48;;;4.25;;
74543;SDS011;63016;55.030;38.710;2022-08-23T14:04:20;9.93;;;4.10;;
74543;SDS011;63016;55.030;38.710;2022-08-23T14:06:46;8.05;;;4.20;;
74543;SDS011;63016;55.030;38.710;2022-08-23T14:09:12;6.88;;;3.88;;
74543;SDS011;63016;55.030;38.710;2022-08-23T14:11:38;7.60;;;3.92;;
74543;SDS011;63016;55.030;38.710;2022-08-23T14:14:04;7.55;;;4.05;;
74543;SDS011;63016;55.030;38.710;2022-08-23T14:16:30;9.43;;;4.00;;
74543;SDS011;63016;55.030;38.710;2022-08-23T14:18:58;7.68;;;4.50;;
74543;SDS011;63016;55.030;38.710;2022-08-23T14:21:25;9.15;;;4.10;;
74543;SDS011;63016;55.030;38.710;2022-08-23T14:23:50;9.00;;;4.78;;
74543;SDS011;63016;55.030;38.710;2022-08-23T14:26:17;8.57;;;4.10;;
74543;SDS011;63016;55.030;38.710;2022-08-23T14:28:44;7.60;;;4.10;;
74543;SDS011;63016;55.030;38.710;2022-08-23T14:31:10;5.65;;;3.88;;
74543;SDS011;63016;55.030;38.710;2022-08-23T14:33:37;5.18;;;4.00;;
74543;SDS011;63016;55.030;38.710;2022-08-23T14:36:03;8.35;;;4.15;;
74543;SDS011;63016;55.030;38.710;2022-08-23T14:38:29;7.63;;;3.97;;
74543;SDS011;63016;55.030;38.710;2022-08-23T14:40:57;6.68;;;4.30;;
74543;SDS011;63016;55.030;38.710;2022-08-23T14:43:25;9.10;;;4.05;;
74543;SDS011;63016;55.030;38.710;2022-08-23T14:45:51;8.07;;;4.60;;
74543;SDS011;63016;55.030;38.710;2022-08-23T14:48:18;6.45;;;4.13;;
74543;SDS011;63016;55.030;38.710;2022-08-23T14:50:44;6.18;;;4.10;;
74543;SDS011;63016;55.030;38.710;2022-08-23T14:53:11;49.90;;;5.93;;
74543;SDS011;63016;55.030;38.710;2022-08-23T14:55:38;13.88;;;4.30;;
74543;SDS011;63016;55.030;38.710;2022-08-23T14:58:05;11.68;;;4.50;;
74543;SDS011;63016;55.030;38.710;2022-08-23T15:00:31;7.55;;;4.30;;
74543;SDS011;63016;55.030;38.710;2022-08-23T15:03:00;7.32;;;4.25;;
74543;SDS011;63016;55.030;38.710;2022-08-23T15:05:27;9.60;;;4.32;;
74543;SDS011;63016;55.030;38.710;2022-08-23T15:07:53;5.68;;;4.13;;
74543;SDS011;63016;55.030;38.710;2022-08-23T15:10:18;9.77;;;4.32;;
74543;SDS011;63016;55.030;38.710;2022-08-23T15:12:44;11.32;;;5.00;;
74543;SDS011;63016;55.030;38.710;2022-08-23T15:15:13;10.65;;;4.68;;
74543;SDS011;63016;55.030;38.710;2022-08-23T15:17:49;7.55;;;4.05;;
74543;SDS011;63016;55.030;38.710;2022-08-23T15:20:25;9.30;;;4.47;;
74543;SDS011;63016;55.030;38.710;2022-08-23T15:22:52;12.23;;;4.90;;
74543;SDS011;63016;55.030;38.710;2022-08-23T15:25:19;6.22;;;4.68;;
74543;SDS011;63016;55.030;38.710;2022-08-23T15:27:44;10.35;;;5.05;;
74543;SDS011;63016;55.030;38.710;2022-08-23T15:30:11;6.65;;;4.70;;
74543;SDS011;63016;55.030;38.710;2022-08-23T15:32:39;8.38;;;5.05;;
74543;SDS011;63016;55.030;38.710;2022-08-23T15:35:05;6.40;;;4.35;;
74543;SDS011;63016;55.030;38.710;2022-08-23T15:37:31;7.60;;;4.85;;
74543;SDS011;63016;55.030;38.710;2022-08-23T15:39:57;8.50;;;4.90;;
74543;SDS011;63016;55.030;38.710;2022-08-23T15:42:23;7.97;;;5.18;;
74543;SDS011;63016;55.030;38.710;2022-08-23T15:44:49;8.48;;;4.80;;
74543;SDS011;63016;55.030;38.710;2022-08-23T15:47:22;7.20;;;4.70;;
74543;SDS011;63016;55.030;38.710;2022-08-23T15:49:51;6.40;;;4.85;;
74543;SDS011;63016;55.030;38.710;2022-08-23T15:52:17;6.75;;;4.90;;
74543;SDS011;63016;55.030;38.710;2022-08-23T15:54:43;6.60;;;5.28;;
74543;SDS011;63016;55.030;38.710;2022-08-23T15:57:13;6.32;;;5.38;;
74543;SDS011;63016;55.030;38.710;2022-08-23T15:59:42;6.03;;;5.43;;
74543;SDS011;63016;55.030;38.710;2022-08-23T16:02:08;13.20;;;6.03;;
74543;SDS011;63016;55.030;38.710;2022-08-23T16:04:34;7.85;;;5.22;;
74543;SDS011;63016;55.030;38.710;2022-08-23T16:07:03;8.95;;;5.78;;
74543;SDS011;63016;55.030;38.710;2022-08-23T16:09:29;10.43;;;5.68;;
74543;SDS011;63016;55.030;38.710;2022-08-23T16:11:55;12.18;;;6.18;;
74543;SDS011;63016;55.030;38.710;2022-08-23T16:14:21;12.15;;;6.18;;
74543;SDS011;63016;55.030;38.710;2022-08-23T16:16:46;9.35;;;6.18;;
74543;SDS011;63016;55.030;38.710;2022-08-23T16:19:12;9.43;;;5.78;;
74543;SDS011;63016;55.030;38.710;2022-08-23T16:21:38;10.65;;;5.82;;
74543;SDS011;63016;55.030;38.710;2022-08-23T16:24:04;7.10;;;6.05;;
74543;SDS011;63016;55.030;38.710;2022-08-23T16:26:33;8.52;;;5.35;;
74543;SDS011;63016;55.030;38.710;2022-08-23T16:29:02;9.77;;;6.13;;
74543;SDS011;63016;55.030;38.710;2022-08-23T16:31:30;12.60;;;6.10;;
74543;SDS011;63016;55.030;38.710;2022-08-23T16:33:57;8.40;;;7.03;;
74543;SDS011;63016;55.030;38.710;2022-08-23T16:36:24;9.60;;;6.18;;
74543;SDS011;63016;55.030;38.710;2022-08-23T16:38:53;7.97;;;5.95;;
74543;SDS011;63016;55.030;38.710;2022-08-23T16:41:21;11.25;;;6.45;;
74543;SDS011;63016;55.030;38.710;2022-08-23T16:43:49;9.23;;;6.60;;
74543;SDS011;63016;55.030;38.710;2022-08-23T16:46:15;10.13;;;5.93;;
74543;SDS011;63016;55.030;38.710;2022-08-23T16:48:44;7.68;;;6.55;;
74543;SDS011;63016;55.030;38.710;2022-08-23T16:51:09;8.07;;;6.40;;
74543;SDS011;63016;55.030;38.710;2022-08-23T16:53:36;8.10;;;6.50;;
74543;SDS011;63016;55.030;38.710;2022-08-23T16:56:03;12.75;;;6.97;;
74543;SDS011;63016;55.030;38.710;2022-08-23T16:58:30;9.40;;;6.65;;
74543;SDS011;63016;55.030;38.710;2022-08-23T17:00:56;9.50;;;7.03;;
74543;SDS011;63016;55.030;38.710;2022-08-23T17:03:23;9.70;;;6.93;;
74543;SDS011;63016;55.030;38.710;2022-08-23T17:05:49;9.02;;;6.90;;